Grafton, Virginia
Current Conditions -  °F | °C
As of 4:20 PM on Wednesday 26 Nov 2014 (Local Time) from KPHF Reporting Station
Haze Haze  
Wind Chill: 36°   Ceiling: 1600
Heat Index: 43°   Visibility: 3mi
Dew Point: 38°   Wind: 15mph
Humidity: 82%   Direction: 320°NW
Pressure: 29.89"   Gusts: 29mph
Location:  37.1781°N, 76.4669°W
Report Text: KPHF 262120Z 32013G25KT 3SM HZ SCT006 OVC016 06/03 A2989 RMK AO2 RAE16 P0000 T00610033
Loading
Personal Weather Stations






























Interactive Weather Map New forecast layout! Learn more

10-Day Weather Forecast

Advertisements
Track Severe Weather on mobile